createdAt,value
2019-01-08T00:00:20.961Z,6.80
2019-01-08T00:02:45.380Z,4.67
2019-01-08T00:05:09.866Z,5.10
2019-01-08T00:07:34.265Z,6.90
2019-01-08T00:09:58.692Z,5.60
2019-01-08T00:12:23.152Z,5.27
2019-01-08T00:14:47.576Z,5.93
2019-01-08T00:17:11.978Z,5.43
2019-01-08T00:19:36.503Z,5.27
2019-01-08T00:22:00.901Z,4.67
2019-01-08T00:24:25.327Z,7.40
2019-01-08T00:30:13.254Z,5.97
2019-01-08T00:32:37.645Z,5.50
2019-01-08T00:35:02.077Z,7.87
2019-01-08T00:37:26.473Z,9.80
2019-01-08T00:39:50.905Z,5.50
2019-01-08T00:42:15.316Z,4.90
2019-01-08T00:44:39.738Z,6.00
2019-01-08T00:47:04.141Z,5.97
2019-01-08T00:49:28.538Z,7.00
2019-01-08T00:51:52.954Z,7.83
2019-01-08T00:54:17.362Z,6.63
2019-01-08T00:56:41.791Z,10.17
2019-01-08T00:59:06.193Z,5.17
2019-01-08T01:01:30.612Z,9.60
2019-01-08T01:03:55.029Z,5.00
2019-01-08T01:06:19.590Z,4.90
2019-01-08T01:08:44.064Z,4.23
2019-01-08T01:11:08.488Z,6.70
2019-01-08T01:13:32.903Z,5.27
2019-01-08T01:15:57.333Z,4.97
2019-01-08T01:18:21.901Z,5.77
2019-01-08T01:20:46.327Z,6.23
2019-01-08T01:23:10.709Z,8.13
2019-01-08T01:25:35.114Z,10.17
2019-01-08T01:27:59.553Z,6.97
2019-01-08T01:30:23.947Z,6.23
2019-01-08T01:32:48.372Z,9.13
2019-01-08T01:35:12.827Z,8.37
2019-01-08T01:37:37.322Z,11.43
2019-01-08T01:40:01.718Z,9.87
2019-01-08T01:42:26.143Z,11.10
2019-01-08T01:44:50.532Z,6.70
2019-01-08T01:47:14.990Z,9.50
2019-01-08T01:49:39.380Z,7.47
2019-01-08T01:52:03.886Z,13.47
2019-01-08T01:54:28.290Z,14.03
2019-01-08T01:56:52.853Z,8.70
2019-01-08T01:59:17.282Z,7.90
2019-01-08T02:01:41.672Z,9.57
2019-01-08T02:04:06.105Z,11.20
2019-01-08T02:06:30.508Z,10.27
2019-01-08T02:08:54.953Z,13.23
2019-01-08T02:11:19.347Z,8.60
2019-01-08T02:13:44.648Z,7.57
2019-01-08T02:22:29.297Z,10.57
2019-01-08T02:24:53.736Z,13.27
2019-01-08T02:27:18.136Z,13.47
2019-01-08T02:29:42.576Z,12.17
2019-01-08T02:32:06.985Z,10.47
2019-01-08T02:34:31.399Z,8.80
2019-01-08T02:36:55.799Z,16.03
2019-01-08T02:43:01.352Z,11.50
2019-01-08T02:45:25.746Z,13.80
2019-01-08T02:50:20.051Z,17.30
2019-01-08T02:52:44.471Z,15.07
2019-01-08T02:55:08.866Z,13.63
2019-01-08T02:57:33.252Z,10.43
2019-01-08T02:59:57.665Z,7.10
2019-01-08T03:02:22.059Z,12.43
2019-01-08T03:04:46.475Z,13.43
2019-01-08T03:07:10.865Z,17.77
2019-01-08T03:09:36.936Z,17.43
2019-01-08T03:12:01.345Z,13.67
2019-01-08T03:14:25.763Z,10.63
2019-01-08T03:16:50.172Z,12.90
2019-01-08T03:19:14.556Z,18.97
2019-01-08T03:21:38.969Z,11.73
2019-01-08T03:24:03.350Z,14.33
2019-01-08T03:26:27.783Z,20.80
2019-01-08T03:28:52.180Z,17.93
2019-01-08T03:31:16.591Z,13.93
2019-01-08T03:33:40.982Z,22.03
2019-01-08T03:36:05.381Z,11.83
2019-01-08T03:38:29.765Z,11.67
2019-01-08T03:40:54.185Z,13.97
2019-01-08T03:43:18.600Z,11.77
2019-01-08T03:45:42.985Z,11.43
2019-01-08T03:48:07.412Z,12.00
2019-01-08T03:50:31.812Z,10.53
2019-01-08T03:52:56.227Z,14.90
2019-01-08T03:55:20.608Z,14.03
2019-01-08T03:57:45.025Z,13.60
2019-01-08T04:00:11.651Z,11.63
2019-01-08T04:02:36.146Z,15.53
2019-01-08T04:05:00.776Z,16.40
2019-01-08T04:07:25.347Z,12.57
2019-01-08T04:09:49.740Z,9.63
2019-01-08T04:12:14.132Z,11.00
2019-01-08T04:14:38.552Z,10.53
2019-01-08T04:17:02.958Z,13.27
2019-01-08T04:19:27.435Z,11.53
2019-01-08T04:21:51.813Z,12.13
2019-01-08T04:24:16.220Z,12.17
2019-01-08T04:26:40.618Z,9.77
2019-01-08T04:29:05.041Z,13.27
2019-01-08T04:31:29.418Z,9.30
2019-01-08T04:33:53.805Z,13.47
2019-01-08T04:36:18.220Z,11.00
2019-01-08T04:38:42.623Z,10.07
2019-01-08T04:41:07.041Z,8.33
2019-01-08T04:43:31.426Z,11.73
2019-01-08T04:45:55.841Z,16.87
2019-01-08T04:48:20.349Z,10.30
2019-01-08T04:50:44.752Z,9.43
2019-01-08T04:53:09.161Z,11.00
2019-01-08T04:55:33.569Z,11.17
2019-01-08T04:57:57.962Z,14.07
2019-01-08T05:00:22.347Z,8.90
2019-01-08T05:02:46.748Z,8.37
2019-01-08T05:05:11.147Z,15.57
2019-01-08T05:07:35.552Z,8.23
2019-01-08T05:09:59.941Z,11.37
2019-01-08T05:12:24.354Z,9.10
2019-01-08T05:14:48.745Z,7.03
2019-01-08T05:17:13.135Z,9.10
2019-01-08T05:19:37.537Z,11.97
2019-01-08T05:22:01.913Z,13.63
2019-01-08T05:24:26.330Z,11.87
2019-01-08T05:26:50.751Z,12.37
2019-01-08T05:29:15.153Z,7.73
2019-01-08T05:31:39.547Z,10.87
2019-01-08T05:34:03.958Z,9.50
2019-01-08T05:36:28.344Z,8.30
2019-01-08T05:38:52.761Z,14.17
2019-01-08T05:41:17.139Z,8.37
2019-01-08T05:43:41.571Z,6.47
2019-01-08T05:46:05.980Z,6.63
2019-01-08T05:48:30.378Z,5.57
2019-01-08T05:50:54.781Z,5.57
2019-01-08T05:53:19.182Z,10.80
2019-01-08T05:55:43.578Z,6.40
2019-01-08T05:58:07.966Z,12.63
2019-01-08T06:00:32.360Z,6.33
2019-01-08T06:02:56.750Z,9.83
2019-01-08T06:05:21.166Z,5.33
2019-01-08T06:07:45.544Z,8.07
2019-01-08T06:10:10.418Z,4.50
2019-01-08T06:12:34.809Z,6.60
2019-01-08T06:14:59.304Z,8.33
2019-01-08T06:17:23.716Z,8.63
2019-01-08T06:19:48.096Z,5.60
2019-01-08T06:22:12.499Z,6.97
2019-01-08T06:24:36.881Z,5.43
2019-01-08T06:27:01.273Z,6.10
2019-01-08T06:29:25.657Z,10.60
2019-01-08T06:31:50.110Z,5.67
2019-01-08T06:34:14.469Z,9.23
2019-01-08T06:36:38.850Z,10.73
2019-01-08T06:39:04.645Z,5.33
2019-01-08T06:41:29.031Z,6.77
2019-01-08T06:43:53.431Z,11.43
2019-01-08T06:46:17.803Z,7.07
2019-01-08T06:48:42.217Z,10.17
2019-01-08T06:51:06.623Z,7.50
2019-01-08T06:53:31.027Z,8.77
2019-01-08T06:55:55.427Z,10.87
2019-01-08T06:58:19.840Z,7.23
2019-01-08T07:00:44.224Z,9.87
2019-01-08T07:03:08.597Z,4.77
2019-01-08T07:05:33.008Z,9.20
2019-01-08T07:07:57.399Z,9.67
2019-01-08T07:10:21.809Z,7.93
2019-01-08T07:12:46.190Z,7.07
2019-01-08T07:15:10.594Z,10.33
2019-01-08T07:17:34.978Z,9.30
2019-01-08T07:19:59.400Z,8.20
2019-01-08T07:22:23.798Z,5.57
2019-01-08T07:24:48.223Z,6.63
2019-01-08T07:27:16.602Z,8.70
2019-01-08T07:29:38.692Z,7.37
2019-01-08T07:32:03.120Z,10.43
2019-01-08T07:34:27.510Z,8.80
2019-01-08T07:36:51.935Z,8.20
2019-01-08T07:39:16.320Z,4.50
2019-01-08T07:41:40.745Z,5.57
2019-01-08T07:44:05.122Z,10.70
2019-01-08T07:46:29.541Z,10.27
2019-01-08T07:48:53.940Z,7.47
2019-01-08T07:51:18.321Z,7.17
2019-01-08T07:53:42.734Z,12.93
2019-01-08T07:56:07.121Z,7.47
2019-01-08T07:58:31.655Z,12.90
2019-01-08T08:00:56.005Z,11.37
2019-01-08T08:03:20.415Z,13.40
2019-01-08T08:05:44.822Z,13.30
2019-01-08T08:08:09.225Z,13.20
2019-01-08T08:10:33.627Z,14.07
2019-01-08T08:12:58.036Z,10.67
2019-01-08T08:15:22.434Z,15.20
2019-01-08T08:17:46.829Z,9.63
2019-01-08T08:20:11.379Z,13.73
2019-01-08T08:22:35.787Z,10.73
2019-01-08T08:25:00.305Z,8.23
2019-01-08T08:27:24.650Z,8.00
2019-01-08T08:29:49.057Z,5.63
2019-01-08T08:32:13.453Z,7.73
2019-01-08T08:34:37.889Z,10.90
2019-01-08T08:37:02.319Z,9.97
2019-01-08T08:39:26.699Z,7.53
2019-01-08T08:41:51.082Z,4.63
2019-01-08T08:44:15.461Z,4.57
2019-01-08T08:46:39.865Z,6.07
2019-01-08T08:49:04.256Z,8.83
2019-01-08T08:51:28.664Z,3.33
2019-01-08T08:53:53.064Z,7.57
2019-01-08T08:56:17.491Z,10.27
2019-01-08T08:58:41.868Z,8.27
2019-01-08T09:01:07.041Z,4.00
2019-01-08T09:03:31.735Z,8.47
2019-01-08T09:05:56.135Z,4.60
2019-01-08T09:08:20.516Z,6.33
2019-01-08T09:10:44.914Z,6.87
2019-01-08T09:13:09.371Z,10.33
2019-01-08T09:15:33.748Z,7.47
2019-01-08T09:17:58.160Z,7.47
2019-01-08T09:20:22.562Z,6.97
2019-01-08T09:22:46.963Z,7.30
2019-01-08T09:25:11.363Z,4.87
2019-01-08T09:27:35.786Z,5.63
2019-01-08T09:30:00.208Z,4.80
2019-01-08T09:32:24.562Z,7.37
2019-01-08T09:34:48.969Z,5.73
2019-01-08T09:37:13.359Z,5.03
2019-01-08T09:39:37.770Z,8.40
2019-01-08T09:42:02.142Z,7.83
2019-01-08T09:44:26.560Z,6.97
2019-01-08T09:46:50.941Z,5.10
2019-01-08T09:49:15.365Z,6.97
2019-01-08T09:51:39.757Z,5.63
2019-01-08T09:54:04.269Z,3.80
2019-01-08T09:56:28.661Z,4.87
2019-01-08T09:58:53.067Z,3.77
2019-01-08T10:01:23.801Z,3.60
2019-01-08T10:03:43.544Z,7.67
2019-01-08T10:06:07.968Z,3.60
2019-01-08T10:08:34.683Z,3.03
2019-01-08T10:10:59.096Z,2.63
2019-01-08T10:13:23.512Z,3.27
2019-01-08T10:15:47.916Z,1.00
2019-01-08T10:18:12.326Z,1.03
2019-01-08T10:20:36.730Z,4.17
2019-01-08T10:23:01.110Z,3.97
2019-01-08T10:25:25.499Z,3.23
2019-01-08T10:27:49.910Z,4.20
2019-01-08T10:30:14.302Z,2.37
2019-01-08T10:32:38.712Z,4.83
2019-01-08T10:35:03.161Z,3.50
2019-01-08T10:37:27.593Z,4.93
2019-01-08T10:39:51.990Z,9.90
2019-01-08T10:42:16.410Z,12.80
2019-01-08T10:44:40.799Z,8.67
2019-01-08T10:47:05.202Z,9.53
2019-01-08T10:49:29.606Z,11.53
2019-01-08T10:51:54.000Z,10.03
2019-01-08T10:54:18.429Z,5.90
2019-01-08T10:56:42.830Z,9.37
2019-01-08T10:59:07.745Z,9.13
2019-01-08T11:01:40.267Z,10.40
2019-01-08T11:03:58.502Z,7.87
2019-01-08T11:06:22.912Z,15.27
2019-01-08T11:08:47.347Z,11.47
2019-01-08T11:11:11.735Z,11.53
2019-01-08T11:13:36.127Z,12.03
2019-01-08T11:16:00.586Z,10.33
2019-01-08T11:18:24.929Z,14.63
2019-01-08T11:20:49.348Z,10.03
2019-01-08T11:23:13.746Z,11.23
2019-01-08T11:25:38.177Z,10.77
2019-01-08T11:28:02.570Z,11.50
2019-01-08T11:30:26.974Z,6.07
2019-01-08T11:32:51.371Z,12.67
2019-01-08T11:35:15.777Z,7.43
2019-01-08T11:37:40.172Z,14.00
2019-01-08T11:40:06.404Z,8.10
2019-01-08T11:42:30.795Z,11.37
2019-01-08T11:44:55.176Z,5.40
2019-01-08T11:47:19.575Z,8.47
2019-01-08T11:49:43.969Z,8.50
2019-01-08T11:52:08.387Z,11.73
2019-01-08T11:54:40.699Z,11.17
2019-01-08T11:56:58.901Z,12.97
2019-01-08T11:59:23.311Z,10.40
2019-01-08T12:01:47.872Z,12.53
2019-01-08T12:04:12.286Z,12.03
2019-01-08T12:06:36.683Z,13.73
2019-01-08T12:09:01.105Z,8.30
2019-01-08T12:11:25.489Z,11.00
2019-01-08T12:13:49.915Z,7.73
2019-01-08T12:16:14.310Z,10.10
2019-01-08T12:18:40.259Z,10.77
2019-01-08T12:21:04.656Z,9.23
2019-01-08T12:23:29.070Z,11.53
2019-01-08T12:25:53.467Z,11.33
2019-01-08T12:28:17.858Z,9.50
2019-01-08T12:30:42.279Z,11.00
2019-01-08T12:33:06.678Z,12.03
2019-01-08T12:35:31.102Z,11.93
2019-01-08T12:37:55.502Z,9.20
2019-01-08T12:40:19.905Z,15.17
2019-01-08T12:42:44.298Z,14.33
2019-01-08T12:45:08.769Z,15.97
2019-01-08T12:47:33.169Z,11.50
2019-01-08T12:49:57.591Z,18.10
2019-01-08T12:52:22.027Z,13.00
2019-01-08T12:54:46.410Z,13.70
2019-01-08T12:57:10.827Z,10.87
2019-01-08T12:59:35.243Z,11.33
2019-01-08T13:01:59.664Z,13.47
2019-01-08T13:04:24.049Z,15.13
2019-01-08T13:06:48.463Z,12.83
2019-01-08T13:09:12.839Z,15.50
2019-01-08T13:11:37.260Z,13.40
2019-01-08T13:14:01.677Z,14.93
2019-01-08T13:16:26.061Z,15.17
2019-01-08T13:18:50.478Z,15.00
2019-01-08T13:21:14.884Z,17.37
2019-01-08T13:23:39.292Z,15.97
2019-01-08T13:26:03.685Z,19.27
2019-01-08T13:28:28.102Z,19.57
2019-01-08T13:30:52.480Z,16.13
2019-01-08T13:33:16.898Z,19.33
2019-01-08T13:35:41.265Z,14.50
2019-01-08T13:38:05.700Z,13.27
2019-01-08T13:40:30.121Z,15.60
2019-01-08T13:42:54.523Z,13.03
2019-01-08T13:45:18.933Z,17.90
2019-01-08T13:47:43.315Z,13.27
2019-01-08T13:50:08.891Z,20.10
2019-01-08T13:52:33.299Z,12.33
2019-01-08T13:54:57.709Z,16.30
2019-01-08T13:57:22.104Z,14.93
2019-01-08T13:59:46.523Z,6.57
2019-01-08T14:02:10.913Z,14.57
2019-01-08T14:04:35.329Z,19.77
2019-01-08T14:06:59.728Z,16.20
2019-01-08T14:09:24.973Z,14.33
2019-01-08T14:11:49.390Z,13.00
2019-01-08T14:14:13.793Z,14.93
2019-01-08T14:16:38.213Z,16.17
2019-01-08T14:19:02.632Z,11.07
2019-01-08T14:21:27.026Z,12.83
2019-01-08T14:23:51.406Z,12.60
2019-01-08T14:26:15.827Z,14.43
2019-01-08T14:28:40.236Z,11.47
2019-01-08T14:31:04.633Z,14.77
2019-01-08T14:33:29.043Z,7.87
2019-01-08T14:35:53.511Z,14.00
2019-01-08T14:38:17.959Z,12.87
2019-01-08T14:40:42.344Z,12.87
2019-01-08T14:43:13.952Z,9.63
2019-01-08T14:45:32.833Z,7.27
2019-01-08T14:47:57.248Z,7.60
2019-01-08T14:50:21.819Z,17.20
2019-01-08T14:52:46.200Z,12.60
2019-01-08T14:55:10.610Z,19.07
2019-01-08T14:57:35.001Z,11.10
2019-01-08T14:59:59.423Z,21.90
2019-01-08T15:02:26.876Z,8.67
2019-01-08T15:04:51.303Z,13.03
2019-01-08T15:07:15.714Z,19.73
2019-01-08T15:09:40.133Z,14.10
2019-01-08T15:12:04.531Z,16.37
2019-01-08T15:14:28.954Z,15.50
2019-01-08T15:16:53.354Z,19.03
2019-01-08T15:19:17.794Z,17.27
2019-01-08T15:21:42.241Z,22.40
2019-01-08T15:24:06.619Z,12.13
2019-01-08T15:26:31.039Z,16.13
2019-01-08T15:28:55.447Z,19.17
2019-01-08T15:31:19.875Z,19.60
2019-01-08T15:33:44.286Z,11.83
2019-01-08T15:36:08.702Z,21.27
2019-01-08T15:38:33.107Z,18.87
2019-01-08T15:40:57.530Z,14.40
2019-01-08T15:43:21.935Z,14.17
2019-01-08T15:45:46.340Z,18.53
2019-01-08T15:48:10.770Z,16.20
2019-01-08T15:50:35.164Z,16.00
2019-01-08T15:53:02.565Z,12.17
2019-01-08T15:55:26.949Z,17.23
2019-01-08T15:57:51.356Z,17.93
2019-01-08T16:00:15.755Z,15.00
2019-01-08T16:02:40.183Z,15.80
2019-01-08T16:05:06.493Z,14.13
2019-01-08T16:07:30.929Z,11.37
2019-01-08T16:09:57.662Z,15.83
2019-01-08T16:12:22.073Z,11.60
2019-01-08T16:14:46.499Z,15.47
2019-01-08T16:17:10.891Z,11.17
2019-01-08T16:19:35.318Z,15.27
2019-01-08T16:21:59.710Z,12.07
2019-01-08T16:24:24.117Z,9.77
2019-01-08T16:26:48.509Z,9.50
2019-01-08T16:29:12.994Z,13.07
2019-01-08T16:31:37.406Z,12.93
2019-01-08T16:34:01.802Z,8.37
2019-01-08T16:36:26.201Z,5.60
2019-01-08T16:38:50.601Z,10.20
2019-01-08T16:41:15.041Z,6.50
2019-01-08T16:43:39.517Z,7.10
2019-01-08T16:46:03.925Z,4.10
2019-01-08T16:48:28.336Z,4.10
2019-01-08T16:50:52.753Z,3.80
2019-01-08T16:53:17.136Z,4.23
2019-01-08T16:55:41.637Z,3.33
2019-01-08T16:58:06.060Z,5.10
2019-01-08T17:00:30.466Z,2.50
2019-01-08T17:02:54.892Z,6.00
2019-01-08T17:05:19.284Z,5.07
2019-01-08T17:07:43.701Z,2.87
2019-01-08T17:10:08.672Z,6.10
2019-01-08T17:12:33.095Z,5.10
2019-01-08T17:14:57.497Z,3.87
2019-01-08T17:17:26.646Z,4.37
2019-01-08T17:19:51.073Z,3.40
2019-01-08T17:22:15.597Z,3.50
2019-01-08T17:24:40.019Z,5.77
2019-01-08T17:27:04.393Z,4.23
2019-01-08T17:29:28.825Z,3.33
2019-01-08T17:31:53.232Z,5.23
2019-01-08T17:34:17.643Z,4.83
2019-01-08T17:36:42.057Z,5.47
2019-01-08T17:39:06.927Z,3.37
2019-01-08T17:41:31.320Z,4.67
2019-01-08T17:43:55.740Z,6.10
2019-01-08T17:46:20.226Z,3.90
2019-01-08T17:48:44.627Z,4.40
2019-01-08T17:51:09.033Z,3.17
2019-01-08T17:53:33.438Z,6.00
2019-01-08T17:55:57.872Z,6.50
2019-01-08T17:58:33.436Z,5.57
2019-01-08T18:00:57.850Z,6.27
2019-01-08T18:03:22.252Z,3.47
2019-01-08T18:05:46.659Z,4.83
2019-01-08T18:08:11.053Z,4.27
2019-01-08T18:10:35.470Z,5.30
2019-01-08T18:12:59.851Z,5.03
2019-01-08T18:15:26.991Z,6.47
2019-01-08T18:17:51.407Z,7.20
2019-01-08T18:20:15.822Z,7.83
2019-01-08T18:22:40.320Z,7.73
2019-01-08T18:25:05.340Z,8.27
2019-01-08T18:27:29.766Z,6.67
2019-01-08T18:29:54.158Z,7.93
2019-01-08T18:34:53.559Z,5.43
2019-01-08T18:37:17.991Z,5.23
2019-01-08T18:39:42.404Z,5.27
2019-01-08T18:42:06.808Z,3.80
2019-01-08T18:44:31.217Z,4.43
2019-01-08T18:46:55.590Z,6.67
2019-01-08T18:49:20.018Z,5.00
2019-01-08T18:51:44.396Z,5.70
2019-01-08T18:54:08.846Z,5.83
2019-01-08T18:56:33.233Z,2.57
2019-01-08T18:58:57.663Z,2.80
2019-01-08T19:01:22.060Z,3.30
2019-01-08T19:03:46.485Z,4.90
2019-01-08T19:06:10.896Z,4.17
2019-01-08T19:09:11.130Z,3.47
2019-01-08T19:11:35.519Z,4.33
2019-01-08T19:13:59.903Z,2.90
2019-01-08T19:16:24.398Z,4.97
2019-01-08T19:18:48.827Z,1.40
2019-01-08T19:21:13.227Z,2.07
2019-01-08T19:23:37.639Z,5.00
2019-01-08T19:26:02.087Z,4.57
2019-01-08T19:28:26.465Z,3.50
2019-01-08T19:30:50.892Z,5.00
2019-01-08T19:33:15.275Z,3.43
2019-01-08T19:35:39.699Z,3.90
2019-01-08T19:38:04.117Z,3.03
2019-01-08T19:40:28.524Z,3.43
2019-01-08T19:42:53.017Z,2.13
2019-01-08T19:45:17.448Z,4.27
2019-01-08T19:47:41.871Z,5.37
2019-01-08T19:50:08.097Z,3.80
2019-01-08T19:52:32.539Z,4.80
2019-01-08T19:54:57.029Z,2.60
2019-01-08T19:57:21.451Z,2.33
2019-01-08T19:59:45.854Z,2.53
2019-01-08T20:02:10.280Z,5.23
2019-01-08T20:04:34.698Z,5.70
2019-01-08T20:06:59.139Z,3.47
2019-01-08T20:09:25.483Z,4.57
2019-01-08T20:11:49.688Z,4.17
2019-01-08T20:14:14.154Z,6.30
2019-01-08T20:16:38.537Z,6.50
2019-01-08T20:19:02.968Z,4.63
2019-01-08T20:21:27.364Z,3.37
2019-01-08T20:23:51.797Z,5.00
2019-01-08T20:26:16.261Z,4.87
2019-01-08T20:28:40.632Z,5.43
2019-01-08T20:31:05.038Z,4.13
2019-01-08T20:33:29.455Z,5.87
2019-01-08T20:35:53.950Z,5.00
2019-01-08T20:38:18.331Z,3.20
2019-01-08T20:40:42.736Z,3.77
2019-01-08T20:43:07.154Z,2.30
2019-01-08T20:45:31.729Z,2.93
2019-01-08T20:47:56.191Z,3.37
2019-01-08T20:50:20.532Z,2.50
2019-01-08T20:52:44.930Z,2.10
2019-01-08T20:55:09.371Z,2.80
2019-01-08T20:57:33.744Z,1.70
2019-01-08T20:59:58.159Z,2.97
2019-01-08T21:02:25.608Z,3.50
2019-01-08T21:04:50.020Z,1.73
2019-01-08T21:07:14.423Z,2.80
2019-01-08T21:09:38.863Z,2.07
2019-01-08T21:12:03.232Z,4.77
2019-01-08T21:14:27.620Z,1.63
2019-01-08T21:16:52.043Z,2.13
2019-01-08T21:19:16.440Z,2.87
2019-01-08T21:21:40.902Z,4.57
2019-01-08T21:24:05.285Z,1.93
2019-01-08T21:26:29.722Z,3.10
2019-01-08T21:28:54.089Z,2.80
2019-01-08T21:31:18.490Z,1.50
2019-01-08T21:33:42.895Z,5.70
2019-01-08T21:36:07.323Z,2.47
2019-01-08T21:38:31.711Z,3.70
2019-01-08T21:40:56.094Z,1.17
2019-01-08T21:43:20.511Z,2.17
2019-01-08T21:45:44.894Z,1.87
2019-01-08T21:48:09.322Z,2.33
2019-01-08T21:50:34.103Z,3.03
2019-01-08T21:52:58.496Z,1.93
2019-01-08T21:55:23.460Z,2.07
2019-01-08T21:57:47.858Z,1.70
2019-01-08T22:00:12.284Z,2.17
2019-01-08T22:02:37.445Z,2.97
2019-01-08T22:05:01.843Z,2.40
2019-01-08T22:07:26.384Z,3.17
2019-01-08T22:09:51.252Z,4.60
2019-01-08T22:12:15.685Z,2.27
2019-01-08T22:14:40.079Z,2.37
2019-01-08T22:17:04.478Z,2.70
2019-01-08T22:19:28.858Z,2.83
2019-01-08T22:21:53.263Z,3.17
2019-01-08T22:24:17.649Z,1.70
2019-01-08T22:26:42.053Z,3.17
2019-01-08T22:29:06.468Z,3.00
2019-01-08T22:31:30.854Z,2.50
2019-01-08T22:33:55.274Z,3.63
2019-01-08T22:36:19.735Z,1.93
2019-01-08T22:38:44.138Z,2.57
2019-01-08T22:41:08.603Z,2.00
2019-01-08T22:43:33.075Z,2.03
2019-01-08T22:45:57.476Z,4.43
2019-01-08T22:48:22.449Z,3.03
2019-01-08T22:50:46.833Z,2.10
2019-01-08T22:53:11.235Z,2.50
2019-01-08T22:55:35.645Z,2.27
2019-01-08T22:58:01.989Z,2.60
2019-01-08T23:00:44.203Z,4.17
2019-01-08T23:03:08.591Z,1.87
2019-01-08T23:05:33.070Z,5.13
2019-01-08T23:07:57.523Z,3.30
2019-01-08T23:10:21.925Z,3.93
2019-01-08T23:12:46.315Z,2.97
2019-01-08T23:15:10.736Z,2.70
2019-01-08T23:17:35.194Z,2.80
2019-01-08T23:19:59.575Z,3.73
2019-01-08T23:22:24.010Z,4.63
2019-01-08T23:24:48.407Z,3.50
2019-01-08T23:27:12.827Z,5.33
2019-01-08T23:29:37.239Z,2.30
2019-01-08T23:32:01.674Z,3.67
2019-01-08T23:34:26.059Z,4.00
2019-01-08T23:36:50.467Z,3.67
2019-01-08T23:39:14.878Z,3.17
2019-01-08T23:41:39.301Z,4.20
2019-01-08T23:44:03.756Z,4.20
2019-01-08T23:46:28.148Z,3.97
2019-01-08T23:48:52.551Z,1.57
2019-01-08T23:51:16.963Z,4.47
2019-01-08T23:53:42.737Z,3.57
2019-01-08T23:56:07.196Z,4.83
2019-01-08T23:58:31.611Z,3.03
